sensor_id;sensor_type;location;lat;lon;timestamp;temperature;humidity
78904;DHT22;68291;49.602;8.722;2023-07-24T00:01:01;20.40;88.80
78904;DHT22;68291;49.602;8.722;2023-07-24T00:03:40;20.40;90.00
78904;DHT22;68291;49.602;8.722;2023-07-24T00:06:28;20.30;89.40
78904;DHT22;68291;49.602;8.722;2023-07-24T00:08:59;20.30;89.80
78904;DHT22;68291;49.602;8.722;2023-07-24T00:11:49;20.20;90.00
78904;DHT22;68291;49.602;8.722;2023-07-24T00:14:37;20.10;90.10
78904;DHT22;68291;49.602;8.722;2023-07-24T00:17:28;20.10;90.10
78904;DHT22;68291;49.602;8.722;2023-07-24T00:19:58;20.10;90.80
78904;DHT22;68291;49.602;8.722;2023-07-24T00:22:44;20.00;90.50
78904;DHT22;68291;49.602;8.722;2023-07-24T00:25:29;20.00;90.50
78904;DHT22;68291;49.602;8.722;2023-07-24T00:28:00;20.00;90.60
78904;DHT22;68291;49.602;8.722;2023-07-24T00:30:45;19.90;91.00
78904;DHT22;68291;49.602;8.722;2023-07-24T00:36:52;19.90;91.70
78904;DHT22;68291;49.602;8.722;2023-07-24T00:39:43;19.90;91.20
78904;DHT22;68291;49.602;8.722;2023-07-24T00:42:35;19.80;91.20
78904;DHT22;68291;49.602;8.722;2023-07-24T00:45:17;19.80;91.30
78904;DHT22;68291;49.602;8.722;2023-07-24T00:47:49;19.70;91.50
78904;DHT22;68291;49.602;8.722;2023-07-24T00:50:49;19.70;91.80
78904;DHT22;68291;49.602;8.722;2023-07-24T00:53:35;19.60;92.30
78904;DHT22;68291;49.602;8.722;2023-07-24T00:56:10;19.60;92.00
78904;DHT22;68291;49.602;8.722;2023-07-24T00:58:41;19.50;92.30
78904;DHT22;68291;49.602;8.722;2023-07-24T01:01:17;19.50;92.60
78904;DHT22;68291;49.602;8.722;2023-07-24T01:03:49;19.50;92.80
78904;DHT22;68291;49.602;8.722;2023-07-24T01:06:41;19.50;93.00
78904;DHT22;68291;49.602;8.722;2023-07-24T01:09:15;19.40;93.70
78904;DHT22;68291;49.602;8.722;2023-07-24T01:12:26;19.40;93.20
78904;DHT22;68291;49.602;8.722;2023-07-24T01:15:22;19.40;93.60
78904;DHT22;68291;49.602;8.722;2023-07-24T01:18:12;19.30;93.90
78904;DHT22;68291;49.602;8.722;2023-07-24T01:21:12;19.30;93.70
78904;DHT22;68291;49.602;8.722;2023-07-24T01:24:02;19.20;94.00
78904;DHT22;68291;49.602;8.722;2023-07-24T01:27:17;19.20;94.50
78904;DHT22;68291;49.602;8.722;2023-07-24T01:30:13;19.20;94.80
78904;DHT22;68291;49.602;8.722;2023-07-24T01:33:03;19.20;94.50
78904;DHT22;68291;49.602;8.722;2023-07-24T01:35:49;19.20;94.60
78904;DHT22;68291;49.602;8.722;2023-07-24T01:38:35;19.20;95.60
78904;DHT22;68291;49.602;8.722;2023-07-24T01:41:06;19.20;95.40
78904;DHT22;68291;49.602;8.722;2023-07-24T01:44:03;19.20;95.40
78904;DHT22;68291;49.602;8.722;2023-07-24T01:46:57;19.20;96.20
78904;DHT22;68291;49.602;8.722;2023-07-24T01:49:38;19.10;95.90
78904;DHT22;68291;49.602;8.722;2023-07-24T01:52:29;19.10;95.90
78904;DHT22;68291;49.602;8.722;2023-07-24T01:55:01;19.10;96.30
78904;DHT22;68291;49.602;8.722;2023-07-24T01:57:35;19.10;96.60
78904;DHT22;68291;49.602;8.722;2023-07-24T02:00:33;19.00;96.90
78904;DHT22;68291;49.602;8.722;2023-07-24T02:03:16;19.00;98.20
78904;DHT22;68291;49.602;8.722;2023-07-24T02:05:58;19.00;97.50
78904;DHT22;68291;49.602;8.722;2023-07-24T02:08:39;19.00;97.70
78904;DHT22;68291;49.602;8.722;2023-07-24T02:11:34;19.00;98.30
78904;DHT22;68291;49.602;8.722;2023-07-24T02:14:18;19.00;98.60
78904;DHT22;68291;49.602;8.722;2023-07-24T02:17:23;19.10;99.30
78904;DHT22;68291;49.602;8.722;2023-07-24T02:20:14;19.10;99.70
78904;DHT22;68291;49.602;8.722;2023-07-24T02:23:01;19.00;99.20
78904;DHT22;68291;49.602;8.722;2023-07-24T02:25:50;19.00;99.50
78904;DHT22;68291;49.602;8.722;2023-07-24T02:28:29;19.00;99.60
78904;DHT22;68291;49.602;8.722;2023-07-24T02:31:02;19.00;99.80
78904;DHT22;68291;49.602;8.722;2023-07-24T02:33:46;18.90;99.90
78904;DHT22;68291;49.602;8.722;2023-07-24T02:36:42;18.90;99.90
78904;DHT22;68291;49.602;8.722;2023-07-24T02:39:32;18.80;99.90
78904;DHT22;68291;49.602;8.722;2023-07-24T02:42:39;18.70;99.90
78904;DHT22;68291;49.602;8.722;2023-07-24T02:45:54;18.70;99.90
78904;DHT22;68291;49.602;8.722;2023-07-24T02:49:03;18.60;99.90
78904;DHT22;68291;49.602;8.722;2023-07-24T02:52:10;18.60;99.90
78904;DHT22;68291;49.602;8.722;2023-07-24T02:54:42;18.60;99.90
78904;DHT22;68291;49.602;8.722;2023-07-24T02:57:27;18.50;99.90
78904;DHT22;68291;49.602;8.722;2023-07-24T03:00:00;18.50;99.90
78904;DHT22;68291;49.602;8.722;2023-07-24T03:02:42;18.50;99.90
78904;DHT22;68291;49.602;8.722;2023-07-24T03:05:30;18.50;99.90
78904;DHT22;68291;49.602;8.722;2023-07-24T03:08:05;18.50;99.90
78904;DHT22;68291;49.602;8.722;2023-07-24T03:10:36;18.50;99.90
78904;DHT22;68291;49.602;8.722;2023-07-24T03:13:18;18.50;99.90
78904;DHT22;68291;49.602;8.722;2023-07-24T03:16:02;18.60;99.90
78904;DHT22;68291;49.602;8.722;2023-07-24T03:18:34;18.60;99.90
78904;DHT22;68291;49.602;8.722;2023-07-24T03:21:19;18.60;99.90
78904;DHT22;68291;49.602;8.722;2023-07-24T03:24:06;18.70;99.90
78904;DHT22;68291;49.602;8.722;2023-07-24T03:27:02;18.70;99.90
78904;DHT22;68291;49.602;8.722;2023-07-24T03:29:48;18.70;99.90
78904;DHT22;68291;49.602;8.722;2023-07-24T03:32:19;18.70;99.90
78904;DHT22;68291;49.602;8.722;2023-07-24T03:35:15;18.80;99.90
78904;DHT22;68291;49.602;8.722;2023-07-24T03:38:32;18.80;99.90
78904;DHT22;68291;49.602;8.722;2023-07-24T03:41:16;18.90;99.90
78904;DHT22;68291;49.602;8.722;2023-07-24T03:43:47;18.90;99.90
78904;DHT22;68291;49.602;8.722;2023-07-24T03:46:28;19.00;99.90
78904;DHT22;68291;49.602;8.722;2023-07-24T03:49:24;19.00;99.90
78904;DHT22;68291;49.602;8.722;2023-07-24T03:52:04;19.10;99.90
78904;DHT22;68291;49.602;8.722;2023-07-24T03:54:46;19.10;99.90
78904;DHT22;68291;49.602;8.722;2023-07-24T03:57:29;19.10;99.90
78904;DHT22;68291;49.602;8.722;2023-07-24T04:00:24;19.20;99.90
78904;DHT22;68291;49.602;8.722;2023-07-24T04:03:11;19.20;99.90
78904;DHT22;68291;49.602;8.722;2023-07-24T04:06:04;19.20;99.90
78904;DHT22;68291;49.602;8.722;2023-07-24T04:08:57;19.30;99.90
78904;DHT22;68291;49.602;8.722;2023-07-24T04:11:52;19.30;99.90
78904;DHT22;68291;49.602;8.722;2023-07-24T04:14:32;19.40;99.90
78904;DHT22;68291;49.602;8.722;2023-07-24T04:17:29;19.40;99.90
78904;DHT22;68291;49.602;8.722;2023-07-24T04:20:09;19.50;99.90
78904;DHT22;68291;49.602;8.722;2023-07-24T04:22:46;19.50;99.90
78904;DHT22;68291;49.602;8.722;2023-07-24T04:25:22;19.50;99.90
78904;DHT22;68291;49.602;8.722;2023-07-24T04:31:17;19.60;99.90
78904;DHT22;68291;49.602;8.722;2023-07-24T04:34:00;19.70;99.90
78904;DHT22;68291;49.602;8.722;2023-07-24T04:36:44;19.70;99.90
78904;DHT22;68291;49.602;8.722;2023-07-24T04:39:21;19.80;99.90
78904;DHT22;68291;49.602;8.722;2023-07-24T04:42:31;19.80;99.90
78904;DHT22;68291;49.602;8.722;2023-07-24T04:45:49;19.80;99.90
78904;DHT22;68291;49.602;8.722;2023-07-24T04:48:22;19.90;99.90
78904;DHT22;68291;49.602;8.722;2023-07-24T04:50:56;19.90;99.90
78904;DHT22;68291;49.602;8.722;2023-07-24T04:53:48;20.00;99.90
78904;DHT22;68291;49.602;8.722;2023-07-24T04:56:23;20.00;99.90
78904;DHT22;68291;49.602;8.722;2023-07-24T04:59:04;20.00;99.90
78904;DHT22;68291;49.602;8.722;2023-07-24T05:01:56;20.10;99.90
78904;DHT22;68291;49.602;8.722;2023-07-24T05:04:48;20.10;99.90
78904;DHT22;68291;49.602;8.722;2023-07-24T05:07:30;20.10;99.90
78904;DHT22;68291;49.602;8.722;2023-07-24T05:10:02;20.20;99.90
78904;DHT22;68291;49.602;8.722;2023-07-24T05:12:47;20.20;99.90
78904;DHT22;68291;49.602;8.722;2023-07-24T05:15:19;20.30;99.90
78904;DHT22;68291;49.602;8.722;2023-07-24T05:18:01;20.30;99.90
78904;DHT22;68291;49.602;8.722;2023-07-24T05:20:43;20.40;99.90
78904;DHT22;68291;49.602;8.722;2023-07-24T05:23:21;20.50;99.90
78904;DHT22;68291;49.602;8.722;2023-07-24T05:26:06;20.60;99.90
78904;DHT22;68291;49.602;8.722;2023-07-24T05:28:54;20.70;99.90
78904;DHT22;68291;49.602;8.722;2023-07-24T05:31:40;20.70;99.90
78904;DHT22;68291;49.602;8.722;2023-07-24T05:34:16;20.80;99.90
78904;DHT22;68291;49.602;8.722;2023-07-24T05:36:57;20.90;99.90
78904;DHT22;68291;49.602;8.722;2023-07-24T05:39:37;20.90;99.90
78904;DHT22;68291;49.602;8.722;2023-07-24T05:42:22;21.00;99.90
78904;DHT22;68291;49.602;8.722;2023-07-24T05:45:06;21.10;99.90
78904;DHT22;68291;49.602;8.722;2023-07-24T05:47:44;21.10;99.90
78904;DHT22;68291;49.602;8.722;2023-07-24T05:50:27;21.10;99.90
78904;DHT22;68291;49.602;8.722;2023-07-24T05:53:02;21.20;99.90
78904;DHT22;68291;49.602;8.722;2023-07-24T05:55:56;21.20;99.90
78904;DHT22;68291;49.602;8.722;2023-07-24T05:58:29;21.30;99.90
78904;DHT22;68291;49.602;8.722;2023-07-24T06:01:10;21.30;99.90
78904;DHT22;68291;49.602;8.722;2023-07-24T06:03:54;21.40;99.90
78904;DHT22;68291;49.602;8.722;2023-07-24T06:06:57;21.40;99.90
78904;DHT22;68291;49.602;8.722;2023-07-24T06:09:54;21.50;99.90
78904;DHT22;68291;49.602;8.722;2023-07-24T06:12:52;21.60;99.90
78904;DHT22;68291;49.602;8.722;2023-07-24T06:15:48;21.60;99.90
78904;DHT22;68291;49.602;8.722;2023-07-24T06:18:36;21.70;99.90
78904;DHT22;68291;49.602;8.722;2023-07-24T06:21:16;21.70;99.90
78904;DHT22;68291;49.602;8.722;2023-07-24T06:23:53;21.80;99.90
78904;DHT22;68291;49.602;8.722;2023-07-24T06:26:30;21.90;99.90
78904;DHT22;68291;49.602;8.722;2023-07-24T06:29:05;22.00;99.90
78904;DHT22;68291;49.602;8.722;2023-07-24T06:31:46;22.10;99.90
78904;DHT22;68291;49.602;8.722;2023-07-24T06:34:22;22.20;99.90
78904;DHT22;68291;49.602;8.722;2023-07-24T06:37:05;22.30;99.90
78904;DHT22;68291;49.602;8.722;2023-07-24T06:40:13;22.40;99.90
78904;DHT22;68291;49.602;8.722;2023-07-24T06:42:49;22.50;99.90
78904;DHT22;68291;49.602;8.722;2023-07-24T06:45:35;22.60;99.90
78904;DHT22;68291;49.602;8.722;2023-07-24T06:48:28;22.70;99.90
78904;DHT22;68291;49.602;8.722;2023-07-24T06:51:26;22.80;99.90
78904;DHT22;68291;49.602;8.722;2023-07-24T06:54:11;23.00;99.90
78904;DHT22;68291;49.602;8.722;2023-07-24T06:57:09;23.10;99.90
78904;DHT22;68291;49.602;8.722;2023-07-24T07:00:09;23.30;99.90
78904;DHT22;68291;49.602;8.722;2023-07-24T07:02:48;23.40;99.90
78904;DHT22;68291;49.602;8.722;2023-07-24T07:05:23;23.60;99.90
78904;DHT22;68291;49.602;8.722;2023-07-24T07:07:54;23.70;99.90
78904;DHT22;68291;49.602;8.722;2023-07-24T07:10:35;23.80;99.90
78904;DHT22;68291;49.602;8.722;2023-07-24T07:13:33;23.90;99.90
78904;DHT22;68291;49.602;8.722;2023-07-24T07:16:08;24.00;99.90
78904;DHT22;68291;49.602;8.722;2023-07-24T07:18:54;24.10;99.90
78904;DHT22;68291;49.602;8.722;2023-07-24T07:21:33;24.10;99.90
78904;DHT22;68291;49.602;8.722;2023-07-24T07:24:12;24.20;99.90
78904;DHT22;68291;49.602;8.722;2023-07-24T07:26:57;24.30;99.90
78904;DHT22;68291;49.602;8.722;2023-07-24T07:29:49;24.40;99.90
78904;DHT22;68291;49.602;8.722;2023-07-24T07:32:24;24.50;99.90
78904;DHT22;68291;49.602;8.722;2023-07-24T07:35:00;24.60;99.90
78904;DHT22;68291;49.602;8.722;2023-07-24T07:37:31;24.70;99.90
78904;DHT22;68291;49.602;8.722;2023-07-24T07:40:22;24.80;99.90
78904;DHT22;68291;49.602;8.722;2023-07-24T07:43:20;25.00;99.90
78904;DHT22;68291;49.602;8.722;2023-07-24T07:46:04;25.20;99.90
78904;DHT22;68291;49.602;8.722;2023-07-24T07:48:39;25.40;99.90
78904;DHT22;68291;49.602;8.722;2023-07-24T07:51:26;25.60;99.90
78904;DHT22;68291;49.602;8.722;2023-07-24T07:54:22;25.70;99.90
78904;DHT22;68291;49.602;8.722;2023-07-24T07:57:18;25.80;99.90
78904;DHT22;68291;49.602;8.722;2023-07-24T08:00:12;25.80;99.90
78904;DHT22;68291;49.602;8.722;2023-07-24T08:03:03;25.80;99.70
78904;DHT22;68291;49.602;8.722;2023-07-24T08:05:46;25.80;99.50
78904;DHT22;68291;49.602;8.722;2023-07-24T08:08:50;25.90;99.30
78904;DHT22;68291;49.602;8.722;2023-07-24T08:11:36;26.00;99.70
78904;DHT22;68291;49.602;8.722;2023-07-24T08:14:07;26.00;98.90
78904;DHT22;68291;49.602;8.722;2023-07-24T08:16:49;26.00;98.70
78904;DHT22;68291;49.602;8.722;2023-07-24T08:19:36;25.90;98.40
78904;DHT22;68291;49.602;8.722;2023-07-24T08:22:15;25.90;98.30
78904;DHT22;68291;49.602;8.722;2023-07-24T08:24:59;25.90;98.60
78904;DHT22;68291;49.602;8.722;2023-07-24T08:27:48;25.80;98.70
78904;DHT22;68291;49.602;8.722;2023-07-24T08:30:41;25.80;98.80
78904;DHT22;68291;49.602;8.722;2023-07-24T08:33:37;25.80;98.70
78904;DHT22;68291;49.602;8.722;2023-07-24T08:36:33;25.80;98.80
78904;DHT22;68291;49.602;8.722;2023-07-24T08:39:23;25.80;98.70
78904;DHT22;68291;49.602;8.722;2023-07-24T08:41:55;25.80;98.70
78904;DHT22;68291;49.602;8.722;2023-07-24T08:44:33;25.80;99.10
78904;DHT22;68291;49.602;8.722;2023-07-24T08:47:15;25.90;98.80
78904;DHT22;68291;49.602;8.722;2023-07-24T08:49:47;25.90;98.90
78904;DHT22;68291;49.602;8.722;2023-07-24T08:52:52;25.90;99.00
78904;DHT22;68291;49.602;8.722;2023-07-24T08:55:29;26.00;98.70
78904;DHT22;68291;49.602;8.722;2023-07-24T08:58:30;26.00;98.90
78904;DHT22;68291;49.602;8.722;2023-07-24T09:01:15;26.20;98.90
78904;DHT22;68291;49.602;8.722;2023-07-24T09:04:01;26.30;98.70
78904;DHT22;68291;49.602;8.722;2023-07-24T09:06:35;26.30;98.50
78904;DHT22;68291;49.602;8.722;2023-07-24T09:09:32;26.40;98.70
78904;DHT22;68291;49.602;8.722;2023-07-24T09:12:16;26.50;98.50
78904;DHT22;68291;49.602;8.722;2023-07-24T09:15:01;26.70;98.30
78904;DHT22;68291;49.602;8.722;2023-07-24T09:17:49;26.70;98.30
78904;DHT22;68291;49.602;8.722;2023-07-24T09:20:52;26.90;98.10
78904;DHT22;68291;49.602;8.722;2023-07-24T09:23:27;26.90;97.70
78904;DHT22;68291;49.602;8.722;2023-07-24T09:26:13;27.00;97.60
78904;DHT22;68291;49.602;8.722;2023-07-24T09:28:59;27.00;97.30
78904;DHT22;68291;49.602;8.722;2023-07-24T09:31:55;27.00;97.40
78904;DHT22;68291;49.602;8.722;2023-07-24T09:34:46;27.00;97.20
78904;DHT22;68291;49.602;8.722;2023-07-24T09:37:41;27.00;96.90
78904;DHT22;68291;49.602;8.722;2023-07-24T09:40:18;26.90;96.80
78904;DHT22;68291;49.602;8.722;2023-07-24T09:43:21;26.90;96.50
78904;DHT22;68291;49.602;8.722;2023-07-24T09:46:08;26.70;96.60
78904;DHT22;68291;49.602;8.722;2023-07-24T09:48:44;26.60;96.50
78904;DHT22;68291;49.602;8.722;2023-07-24T09:51:35;26.50;96.60
78904;DHT22;68291;49.602;8.722;2023-07-24T09:54:53;26.40;96.50
78904;DHT22;68291;49.602;8.722;2023-07-24T09:57:47;26.30;96.80
78904;DHT22;68291;49.602;8.722;2023-07-24T10:00:43;26.20;96.90
78904;DHT22;68291;49.602;8.722;2023-07-24T10:03:30;26.10;97.10
78904;DHT22;68291;49.602;8.722;2023-07-24T10:06:09;26.00;97.30
78904;DHT22;68291;49.602;8.722;2023-07-24T10:08:42;25.90;97.40
78904;DHT22;68291;49.602;8.722;2023-07-24T10:11:24;25.80;97.60
78904;DHT22;68291;49.602;8.722;2023-07-24T10:14:09;25.80;97.70
78904;DHT22;68291;49.602;8.722;2023-07-24T10:16:50;25.70;97.70
78904;DHT22;68291;49.602;8.722;2023-07-24T10:19:37;25.60;97.90
78904;DHT22;68291;49.602;8.722;2023-07-24T10:22:18;25.60;98.20
78904;DHT22;68291;49.602;8.722;2023-07-24T10:25:29;25.60;98.10
78904;DHT22;68291;49.602;8.722;2023-07-24T10:28:03;25.60;98.40
78904;DHT22;68291;49.602;8.722;2023-07-24T10:30:55;25.60;98.40
78904;DHT22;68291;49.602;8.722;2023-07-24T10:33:32;25.60;98.60
78904;DHT22;68291;49.602;8.722;2023-07-24T10:36:21;25.60;98.50
78904;DHT22;68291;49.602;8.722;2023-07-24T10:39:14;25.60;98.50
78904;DHT22;68291;49.602;8.722;2023-07-24T10:42:06;25.70;98.50
78904;DHT22;68291;49.602;8.722;2023-07-24T10:45:08;25.70;98.50
78904;DHT22;68291;49.602;8.722;2023-07-24T10:48:06;25.80;98.70
78904;DHT22;68291;49.602;8.722;2023-07-24T10:50:53;25.90;98.80
78904;DHT22;68291;49.602;8.722;2023-07-24T10:53:43;26.10;99.10
78904;DHT22;68291;49.602;8.722;2023-07-24T10:56:24;26.20;98.80
78904;DHT22;68291;49.602;8.722;2023-07-24T10:59:20;26.40;98.70
78904;DHT22;68291;49.602;8.722;2023-07-24T11:02:09;26.50;98.30
78904;DHT22;68291;49.602;8.722;2023-07-24T11:05:00;26.70;98.20
78904;DHT22;68291;49.602;8.722;2023-07-24T11:08:00;26.80;98.00
78904;DHT22;68291;49.602;8.722;2023-07-24T11:10:34;26.90;97.70
78904;DHT22;68291;49.602;8.722;2023-07-24T11:13:15;26.90;97.70
78904;DHT22;68291;49.602;8.722;2023-07-24T11:15:56;27.00;97.50
78904;DHT22;68291;49.602;8.722;2023-07-24T11:18:49;27.00;97.90
78904;DHT22;68291;49.602;8.722;2023-07-24T11:21:32;27.10;97.00
78904;DHT22;68291;49.602;8.722;2023-07-24T11:24:31;27.20;96.90
78904;DHT22;68291;49.602;8.722;2023-07-24T11:27:27;27.30;96.90
78904;DHT22;68291;49.602;8.722;2023-07-24T11:30:18;27.40;96.80
78904;DHT22;68291;49.602;8.722;2023-07-24T11:32:52;27.40;96.70
78904;DHT22;68291;49.602;8.722;2023-07-24T11:35:47;27.50;96.70
78904;DHT22;68291;49.602;8.722;2023-07-24T11:38:26;27.50;96.60
78904;DHT22;68291;49.602;8.722;2023-07-24T11:41:23;27.50;96.40
78904;DHT22;68291;49.602;8.722;2023-07-24T11:44:09;27.60;96.70
78904;DHT22;68291;49.602;8.722;2023-07-24T11:46:49;27.60;97.10
78904;DHT22;68291;49.602;8.722;2023-07-24T11:49:33;27.70;96.40
78904;DHT22;68291;49.602;8.722;2023-07-24T11:52:25;27.70;96.50
78904;DHT22;68291;49.602;8.722;2023-07-24T11:55:09;27.80;96.50
78904;DHT22;68291;49.602;8.722;2023-07-24T11:58:04;27.80;96.30
78904;DHT22;68291;49.602;8.722;2023-07-24T12:00:50;27.80;96.20
78904;DHT22;68291;49.602;8.722;2023-07-24T12:03:28;27.80;96.30
78904;DHT22;68291;49.602;8.722;2023-07-24T12:06:06;27.70;96.20
78904;DHT22;68291;49.602;8.722;2023-07-24T12:08:51;27.60;96.40
78904;DHT22;68291;49.602;8.722;2023-07-24T12:11:31;27.50;96.80
78904;DHT22;68291;49.602;8.722;2023-07-24T12:18:06;27.50;96.90
78904;DHT22;68291;49.602;8.722;2023-07-24T12:20:36;27.60;97.10
78904;DHT22;68291;49.602;8.722;2023-07-24T12:23:22;27.60;97.10
78904;DHT22;68291;49.602;8.722;2023-07-24T12:25:53;27.70;96.90
78904;DHT22;68291;49.602;8.722;2023-07-24T12:28:30;27.70;96.80
78904;DHT22;68291;49.602;8.722;2023-07-24T12:31:22;27.70;96.80
78904;DHT22;68291;49.602;8.722;2023-07-24T12:33:56;27.70;96.70
78904;DHT22;68291;49.602;8.722;2023-07-24T12:36:47;27.70;96.70
78904;DHT22;68291;49.602;8.722;2023-07-24T12:39:37;27.70;96.40
78904;DHT22;68291;49.602;8.722;2023-07-24T12:42:34;27.60;96.50
78904;DHT22;68291;49.602;8.722;2023-07-24T12:45:23;27.60;96.70
78904;DHT22;68291;49.602;8.722;2023-07-24T12:48:11;27.70;97.10
78904;DHT22;68291;49.602;8.722;2023-07-24T12:50:57;27.80;97.00
78904;DHT22;68291;49.602;8.722;2023-07-24T12:53:35;27.90;96.80
78904;DHT22;68291;49.602;8.722;2023-07-24T12:56:31;28.00;96.80
78904;DHT22;68291;49.602;8.722;2023-07-24T12:59:10;28.10;96.80
78904;DHT22;68291;49.602;8.722;2023-07-24T13:01:43;28.10;96.60
78904;DHT22;68291;49.602;8.722;2023-07-24T13:04:31;28.10;96.50
78904;DHT22;68291;49.602;8.722;2023-07-24T13:07:05;28.20;96.40
78904;DHT22;68291;49.602;8.722;2023-07-24T13:09:54;28.40;96.50
78904;DHT22;68291;49.602;8.722;2023-07-24T13:12:27;28.40;96.30
78904;DHT22;68291;49.602;8.722;2023-07-24T13:15:36;28.50;95.90
78904;DHT22;68291;49.602;8.722;2023-07-24T13:18:32;28.60;95.80
78904;DHT22;68291;49.602;8.722;2023-07-24T13:21:15;28.60;95.60
78904;DHT22;68291;49.602;8.722;2023-07-24T13:24:09;28.60;95.00
78904;DHT22;68291;49.602;8.722;2023-07-24T13:26:57;28.50;95.10
78904;DHT22;68291;49.602;8.722;2023-07-24T13:29:45;28.60;95.50
78904;DHT22;68291;49.602;8.722;2023-07-24T13:32:43;28.80;95.70
78904;DHT22;68291;49.602;8.722;2023-07-24T13:35:29;29.20;95.50
78904;DHT22;68291;49.602;8.722;2023-07-24T13:38:11;29.60;94.60
78904;DHT22;68291;49.602;8.722;2023-07-24T13:40:52;29.80;93.40
78904;DHT22;68291;49.602;8.722;2023-07-24T13:43:33;29.90;92.90
78904;DHT22;68291;49.602;8.722;2023-07-24T13:46:15;29.90;92.80
78904;DHT22;68291;49.602;8.722;2023-07-24T13:48:59;30.00;92.90
78904;DHT22;68291;49.602;8.722;2023-07-24T13:51:55;30.20;92.80
78904;DHT22;68291;49.602;8.722;2023-07-24T13:54:52;30.40;91.50
78904;DHT22;68291;49.602;8.722;2023-07-24T13:57:49;30.50;91.10
78904;DHT22;68291;49.602;8.722;2023-07-24T14:00:32;30.50;90.70
78904;DHT22;68291;49.602;8.722;2023-07-24T14:03:24;30.60;90.60
78904;DHT22;68291;49.602;8.722;2023-07-24T14:06:04;30.50;89.70
78904;DHT22;68291;49.602;8.722;2023-07-24T14:08:46;30.30;89.20
78904;DHT22;68291;49.602;8.722;2023-07-24T14:11:27;30.00;88.70
78904;DHT22;68291;49.602;8.722;2023-07-24T14:14:07;29.60;88.60
78904;DHT22;68291;49.602;8.722;2023-07-24T14:16:57;29.30;89.50
78904;DHT22;68291;49.602;8.722;2023-07-24T14:19:38;29.00;90.00
78904;DHT22;68291;49.602;8.722;2023-07-24T14:22:25;28.70;92.10
78904;DHT22;68291;49.602;8.722;2023-07-24T14:25:22;28.40;91.90
78904;DHT22;68291;49.602;8.722;2023-07-24T14:28:24;27.80;92.50
78904;DHT22;68291;49.602;8.722;2023-07-24T14:31:00;27.20;93.90
78904;DHT22;68291;49.602;8.722;2023-07-24T14:33:42;26.60;94.60
78904;DHT22;68291;49.602;8.722;2023-07-24T14:36:40;26.00;95.60
78904;DHT22;68291;49.602;8.722;2023-07-24T14:39:36;25.30;96.70
78904;DHT22;68291;49.602;8.722;2023-07-24T14:42:16;24.80;98.20
78904;DHT22;68291;49.602;8.722;2023-07-24T14:45:21;24.50;99.10
78904;DHT22;68291;49.602;8.722;2023-07-24T14:47:57;24.10;99.90
78904;DHT22;68291;49.602;8.722;2023-07-24T14:50:33;23.80;99.90
78904;DHT22;68291;49.602;8.722;2023-07-24T14:53:16;23.60;99.90
78904;DHT22;68291;49.602;8.722;2023-07-24T14:55:46;23.50;99.90
78904;DHT22;68291;49.602;8.722;2023-07-24T14:58:30;23.40;99.90
78904;DHT22;68291;49.602;8.722;2023-07-24T15:01:10;23.30;99.90
78904;DHT22;68291;49.602;8.722;2023-07-24T15:04:05;23.30;99.90
78904;DHT22;68291;49.602;8.722;2023-07-24T15:06:54;23.40;99.90
78904;DHT22;68291;49.602;8.722;2023-07-24T15:09:32;23.70;99.90
78904;DHT22;68291;49.602;8.722;2023-07-24T15:12:09;23.90;99.90
78904;DHT22;68291;49.602;8.722;2023-07-24T15:14:52;24.00;99.90
78904;DHT22;68291;49.602;8.722;2023-07-24T15:17:24;24.10;99.90
78904;DHT22;68291;49.602;8.722;2023-07-24T15:20:24;24.20;99.90
78904;DHT22;68291;49.602;8.722;2023-07-24T15:23:20;24.30;99.90
78904;DHT22;68291;49.602;8.722;2023-07-24T15:25:54;24.30;99.90
78904;DHT22;68291;49.602;8.722;2023-07-24T15:28:41;24.40;99.90
78904;DHT22;68291;49.602;8.722;2023-07-24T15:31:15;24.40;99.90
78904;DHT22;68291;49.602;8.722;2023-07-24T15:34:25;24.60;99.90
78904;DHT22;68291;49.602;8.722;2023-07-24T15:36:59;24.90;99.90
78904;DHT22;68291;49.602;8.722;2023-07-24T15:40:01;25.40;99.90
78904;DHT22;68291;49.602;8.722;2023-07-24T15:42:46;25.80;99.90
78904;DHT22;68291;49.602;8.722;2023-07-24T15:45:18;26.20;99.90
78904;DHT22;68291;49.602;8.722;2023-07-24T15:47:59;26.50;99.90
78904;DHT22;68291;49.602;8.722;2023-07-24T15:51:14;26.60;99.90
78904;DHT22;68291;49.602;8.722;2023-07-24T15:53:50;26.50;99.90
78904;DHT22;68291;49.602;8.722;2023-07-24T15:56:24;26.40;99.90
78904;DHT22;68291;49.602;8.722;2023-07-24T15:59:27;26.10;99.90
78904;DHT22;68291;49.602;8.722;2023-07-24T16:02:15;25.80;99.90
78904;DHT22;68291;49.602;8.722;2023-07-24T16:05:00;25.60;99.90
78904;DHT22;68291;49.602;8.722;2023-07-24T16:07:57;25.30;99.90
78904;DHT22;68291;49.602;8.722;2023-07-24T16:10:37;25.00;99.90
78904;DHT22;68291;49.602;8.722;2023-07-24T16:13:32;24.80;99.90
78904;DHT22;68291;49.602;8.722;2023-07-24T16:16:19;24.60;99.90
78904;DHT22;68291;49.602;8.722;2023-07-24T16:19:12;24.40;99.90
78904;DHT22;68291;49.602;8.722;2023-07-24T16:22:06;24.20;99.90
78904;DHT22;68291;49.602;8.722;2023-07-24T16:25:07;24.00;99.90
78904;DHT22;68291;49.602;8.722;2023-07-24T16:27:53;23.70;99.90
78904;DHT22;68291;49.602;8.722;2023-07-24T16:30:49;23.50;99.90
78904;DHT22;68291;49.602;8.722;2023-07-24T16:33:45;23.20;99.90
78904;DHT22;68291;49.602;8.722;2023-07-24T16:36:33;23.00;99.90
78904;DHT22;68291;49.602;8.722;2023-07-24T16:39:17;22.90;99.90
78904;DHT22;68291;49.602;8.722;2023-07-24T16:42:17;23.10;99.90
78904;DHT22;68291;49.602;8.722;2023-07-24T16:44:51;23.50;99.90
78904;DHT22;68291;49.602;8.722;2023-07-24T16:47:37;24.00;99.90
78904;DHT22;68291;49.602;8.722;2023-07-24T16:50:12;24.70;99.90
78904;DHT22;68291;49.602;8.722;2023-07-24T16:52:56;25.20;99.90
78904;DHT22;68291;49.602;8.722;2023-07-24T16:55:33;25.90;99.90
78904;DHT22;68291;49.602;8.722;2023-07-24T16:58:05;26.50;99.90
78904;DHT22;68291;49.602;8.722;2023-07-24T17:00:39;27.20;99.90
78904;DHT22;68291;49.602;8.722;2023-07-24T17:03:22;27.70;99.90
78904;DHT22;68291;49.602;8.722;2023-07-24T17:06:10;28.20;99.90
78904;DHT22;68291;49.602;8.722;2023-07-24T17:09:02;28.70;99.90
78904;DHT22;68291;49.602;8.722;2023-07-24T17:11:42;29.00;99.90
78904;DHT22;68291;49.602;8.722;2023-07-24T17:14:21;29.20;99.90
78904;DHT22;68291;49.602;8.722;2023-07-24T17:17:03;29.30;99.90
78904;DHT22;68291;49.602;8.722;2023-07-24T17:19:38;29.10;99.90
78904;DHT22;68291;49.602;8.722;2023-07-24T17:22:15;28.90;99.90
78904;DHT22;68291;49.602;8.722;2023-07-24T17:25:02;28.50;99.90
78904;DHT22;68291;49.602;8.722;2023-07-24T17:27:48;28.10;99.90
78904;DHT22;68291;49.602;8.722;2023-07-24T17:30:35;27.70;99.90
78904;DHT22;68291;49.602;8.722;2023-07-24T17:33:27;27.40;99.90
78904;DHT22;68291;49.602;8.722;2023-07-24T17:36:15;27.20;99.90
78904;DHT22;68291;49.602;8.722;2023-07-24T17:39:05;27.20;99.90